Afton, Michigan
Current Conditions -  °F | °C
As of 2:57 PM on Sunday 21 Dec 2014 (Local Time) from KSLH Reporting Station
Overcast Overcast  
Wind Chill:   Ceiling: 2400
Heat Index:   Visibility: 7mi
Dew Point: -2°   Wind: 3mph
Humidity: 90%   Direction: 150°SSE
Pressure: 30.14"   Gusts: NA
Location:  45.36°N, 84.47°W
Report Text: KSLH 211957Z AUTO 15003KT 7SM BKN024 BKN032 OVC050 00/M02 A3014 RMK AO2 T10051020
Loading
Personal Weather Stations






























Interactive Weather Map New forecast layout! Learn more

10-Day Weather Forecast

Advertisements
Track Severe Weather on mobile